createdAt,value
2023-10-08T00:03:30.486Z,2.58
2023-10-08T00:08:32.166Z,2.20
2023-10-08T00:13:40.969Z,2.22
2023-10-08T00:18:49.839Z,2.53
2023-10-08T00:23:54.269Z,2.72
2023-10-08T00:29:17.003Z,2.22
2023-10-08T00:34:22.683Z,2.30
2023-10-08T00:39:24.421Z,2.13
2023-10-08T00:44:30.588Z,2.10
2023-10-08T00:49:41.793Z,2.10
2023-10-08T00:55:07.511Z,2.13
2023-10-08T01:00:18.498Z,2.03
2023-10-08T01:05:25.630Z,2.72
2023-10-08T01:10:27.142Z,2.53
2023-10-08T01:15:31.915Z,2.58
2023-10-08T01:20:44.825Z,2.40
2023-10-08T01:25:51.995Z,3.03
2023-10-08T01:30:58.685Z,2.70
2023-10-08T01:36:04.109Z,2.10
2023-10-08T01:41:19.367Z,2.72
2023-10-08T01:46:23.205Z,2.67
2023-10-08T01:51:37.712Z,2.15
2023-10-08T01:56:43.456Z,2.45
2023-10-08T02:01:49.058Z,2.17
2023-10-08T02:06:51.854Z,2.03
2023-10-08T02:11:57.811Z,1.88
2023-10-08T02:17:04.448Z,2.65
2023-10-08T02:22:10.886Z,2.35
2023-10-08T02:27:14.599Z,1.90
2023-10-08T02:32:16.090Z,2.22
2023-10-08T02:37:18.012Z,2.65
2023-10-08T02:42:19.804Z,2.47
2023-10-08T02:47:22.267Z,2.45
2023-10-08T02:52:23.902Z,2.10
2023-10-08T02:57:25.400Z,2.35
2023-10-08T03:02:27.339Z,2.33
2023-10-08T03:07:36.433Z,2.03
2023-10-08T03:12:37.948Z,2.60
2023-10-08T03:17:49.301Z,2.10
2023-10-08T03:22:50.942Z,2.47
2023-10-08T03:27:55.118Z,2.60
2023-10-08T03:32:56.854Z,2.72
2023-10-08T03:38:20.448Z,2.28
2023-10-08T03:43:24.685Z,2.40
2023-10-08T03:48:26.651Z,2.05
2023-10-08T03:53:31.629Z,1.92
2023-10-08T03:58:39.463Z,2.47
2023-10-08T04:04:06.807Z,1.95
2023-10-08T04:09:11.138Z,2.33
2023-10-08T04:14:12.808Z,1.90
2023-10-08T04:19:19.088Z,2.08
2023-10-08T04:24:37.826Z,2.20
2023-10-08T04:29:39.727Z,2.33
2023-10-08T04:34:46.716Z,2.22
2023-10-08T04:39:55.520Z,2.60
2023-10-08T04:44:59.714Z,2.38
2023-10-08T04:50:02.078Z,2.25
2023-10-08T04:55:17.384Z,2.20
2023-10-08T05:00:39.031Z,2.42
2023-10-08T05:06:01.868Z,2.05
2023-10-08T05:11:16.498Z,2.28
2023-10-08T05:16:36.979Z,2.03
2023-10-08T05:21:52.273Z,2.80
2023-10-08T05:27:10.131Z,2.00
2023-10-08T05:32:30.406Z,2.45
2023-10-08T05:37:42.060Z,2.78
2023-10-08T05:42:51.155Z,2.50
2023-10-08T05:48:09.079Z,2.40
2023-10-08T05:53:30.825Z,2.05
2023-10-08T05:58:46.827Z,2.85
2023-10-08T06:04:22.071Z,2.45
2023-10-08T06:09:24.093Z,3.25
2023-10-08T06:14:53.616Z,2.65
2023-10-08T06:19:55.291Z,2.58
2023-10-08T06:25:16.716Z,2.58
2023-10-08T06:30:18.420Z,2.13
2023-10-08T06:35:22.494Z,2.35
2023-10-08T06:40:39.523Z,2.88
2023-10-08T06:45:44.137Z,2.42
2023-10-08T06:50:46.704Z,2.58
2023-10-08T06:55:57.693Z,2.83
2023-10-08T07:00:59.957Z,2.50
2023-10-08T07:06:03.607Z,2.88
2023-10-08T07:11:12.523Z,2.47
2023-10-08T07:16:18.472Z,3.17
2023-10-08T07:21:25.180Z,2.30
2023-10-08T07:26:27.528Z,2.25
2023-10-08T07:31:29.990Z,2.38
2023-10-08T07:36:31.898Z,2.42
2023-10-08T07:41:34.929Z,2.60
2023-10-08T07:46:36.475Z,2.20
2023-10-08T07:51:38.539Z,2.30
2023-10-08T07:56:40.030Z,2.40
2023-10-08T08:01:43.249Z,2.88
2023-10-08T08:06:44.720Z,3.08
2023-10-08T08:11:49.227Z,2.38
2023-10-08T08:16:50.767Z,3.15
2023-10-08T08:21:53.604Z,2.58
2023-10-08T08:27:12.786Z,2.47
2023-10-08T08:32:22.441Z,2.92
2023-10-08T08:37:27.359Z,2.58
2023-10-08T08:42:30.991Z,3.47
2023-10-08T08:47:32.634Z,2.97
2023-10-08T08:52:34.316Z,2.88
2023-10-08T08:57:35.917Z,3.15
2023-10-08T09:02:38.887Z,3.33
2023-10-08T09:08:05.230Z,3.70
2023-10-08T09:13:10.156Z,3.80
2023-10-08T09:18:11.782Z,4.45
2023-10-08T09:23:13.728Z,4.75
2023-10-08T09:28:15.294Z,4.40
2023-10-08T09:33:18.750Z,4.63
2023-10-08T09:38:24.815Z,4.90
2023-10-08T09:43:26.918Z,5.60
2023-10-08T09:48:32.097Z,4.38
2023-10-08T09:53:45.732Z,5.80
2023-10-08T09:58:50.132Z,4.85
2023-10-08T10:03:51.946Z,4.60
2023-10-08T10:08:58.336Z,4.25
2023-10-08T10:14:01.622Z,4.82
2023-10-08T10:19:03.237Z,5.07
2023-10-08T10:24:07.036Z,4.65
2023-10-08T10:29:08.820Z,4.78
2023-10-08T10:34:10.469Z,4.75
2023-10-08T10:39:18.089Z,5.65
2023-10-08T10:44:20.618Z,5.28
2023-10-08T10:49:22.879Z,5.38
2023-10-08T10:54:25.579Z,5.88
2023-10-08T10:59:29.083Z,5.60
2023-10-08T11:04:30.917Z,6.07
2023-10-08T11:09:45.526Z,6.18
2023-10-08T11:14:48.224Z,6.13
2023-10-08T11:19:49.781Z,5.78
2023-10-08T11:24:55.229Z,5.78
2023-10-08T11:29:58.867Z,5.40
2023-10-08T11:35:01.475Z,5.57
2023-10-08T11:40:18.855Z,5.60
2023-10-08T11:45:25.183Z,6.28
2023-10-08T11:50:32.957Z,6.35
2023-10-08T11:55:37.799Z,5.90
2023-10-08T12:00:47.487Z,5.93
2023-10-08T12:05:51.074Z,5.65
2023-10-08T12:10:55.491Z,5.85
2023-10-08T12:16:07.272Z,5.72
2023-10-08T12:21:11.658Z,6.03
2023-10-08T12:26:17.067Z,6.22
2023-10-08T12:31:25.870Z,6.97
2023-10-08T12:36:33.749Z,5.72
2023-10-08T12:41:39.422Z,4.85
2023-10-08T12:46:44.944Z,5.93
2023-10-08T12:51:46.474Z,5.57
2023-10-08T12:56:49.969Z,5.82
2023-10-08T13:01:57.775Z,6.00
2023-10-08T13:07:02.865Z,5.95
2023-10-08T13:12:05.790Z,6.35
2023-10-08T13:17:11.826Z,6.18
2023-10-08T13:22:20.730Z,7.22
2023-10-08T13:27:24.561Z,6.30
2023-10-08T13:32:26.036Z,6.45
2023-10-08T13:37:27.531Z,6.55
2023-10-08T13:42:29.172Z,6.75
2023-10-08T13:47:34.741Z,6.68
2023-10-08T13:52:39.971Z,6.18
2023-10-08T13:57:45.584Z,6.18
2023-10-08T14:02:52.370Z,5.97
2023-10-08T14:07:54.231Z,5.38
2023-10-08T14:12:55.831Z,5.78
2023-10-08T14:17:59.585Z,6.65
2023-10-08T14:23:03.568Z,6.57
2023-10-08T14:28:09.474Z,6.10
2023-10-08T14:33:14.395Z,5.97
2023-10-08T14:38:34.911Z,6.20
2023-10-08T14:43:38.885Z,5.43
2023-10-08T14:48:41.855Z,5.20
2023-10-08T14:53:43.852Z,6.68
2023-10-08T14:58:45.853Z,5.95
2023-10-08T15:03:47.564Z,5.20
2023-10-08T15:08:50.980Z,6.22
2023-10-08T15:13:54.948Z,7.10
2023-10-08T15:18:57.790Z,6.70
2023-10-08T15:24:02.521Z,6.80
2023-10-08T15:29:04.192Z,6.72
2023-10-08T15:34:06.104Z,5.95
2023-10-08T15:39:10.967Z,6.45
2023-10-08T15:44:13.243Z,6.10
2023-10-08T15:49:15.017Z,6.85
2023-10-08T15:54:22.045Z,6.03
2023-10-08T15:59:23.750Z,6.05
2023-10-08T16:04:27.612Z,7.13
2023-10-08T16:09:29.248Z,6.40
2023-10-08T16:14:30.741Z,6.20
2023-10-08T16:19:33.416Z,6.78
2023-10-08T16:24:35.526Z,7.03
2023-10-08T16:29:37.435Z,7.10
2023-10-08T16:34:39.337Z,6.07
2023-10-08T16:39:40.786Z,6.60
2023-10-08T16:44:42.289Z,6.78
2023-10-08T16:49:43.844Z,6.00
2023-10-08T16:54:45.442Z,6.53
2023-10-08T16:59:47.133Z,6.43
2023-10-08T17:04:48.624Z,5.80
2023-10-08T17:09:52.667Z,5.53
2023-10-08T17:14:54.975Z,5.35
2023-10-08T17:19:56.538Z,5.80
2023-10-08T17:24:58.772Z,5.78
2023-10-08T17:30:00.380Z,5.63
2023-10-08T17:35:03.148Z,5.45
2023-10-08T17:40:08.654Z,5.85
2023-10-08T17:45:15.088Z,5.05
2023-10-08T17:50:17.081Z,5.70
2023-10-08T17:55:19.282Z,5.63
2023-10-08T18:00:22.579Z,6.10
2023-10-08T18:05:28.008Z,5.03
2023-10-08T18:10:31.833Z,5.05
2023-10-08T18:15:36.616Z,5.25
2023-10-08T18:20:44.701Z,4.85
2023-10-08T18:25:46.954Z,5.53
2023-10-08T18:30:50.967Z,5.57
2023-10-08T18:35:52.529Z,5.15
2023-10-08T18:40:54.053Z,6.07
2023-10-08T18:45:55.573Z,5.00
2023-10-08T18:51:12.024Z,5.75
2023-10-08T18:56:17.542Z,5.43
2023-10-08T19:01:20.518Z,5.45
2023-10-08T19:06:23.935Z,5.20
2023-10-08T19:11:27.442Z,4.82
2023-10-08T19:16:28.973Z,5.22
2023-10-08T19:21:31.045Z,4.65
2023-10-08T19:26:33.981Z,5.40
2023-10-08T19:31:35.507Z,5.90
2023-10-08T19:36:37.027Z,5.07
2023-10-08T19:41:38.487Z,4.93
2023-10-08T19:46:40.007Z,5.18
2023-10-08T19:51:41.579Z,5.28
2023-10-08T19:56:43.229Z,5.63
2023-10-08T20:01:44.793Z,5.55
2023-10-08T20:06:46.254Z,6.10
2023-10-08T20:11:47.803Z,5.30
2023-10-08T20:16:53.109Z,5.90
2023-10-08T20:21:54.575Z,4.70
2023-10-08T20:26:56.188Z,5.55
2023-10-08T20:32:01.026Z,4.90
2023-10-08T20:37:02.533Z,6.10
2023-10-08T20:42:05.905Z,6.20
2023-10-08T20:47:07.847Z,5.25
2023-10-08T20:52:09.555Z,5.88
2023-10-08T20:57:11.892Z,6.68
2023-10-08T21:02:14.159Z,6.07
2023-10-08T21:07:15.964Z,6.88
2023-10-08T21:12:18.083Z,6.55
2023-10-08T21:17:19.586Z,6.10
2023-10-08T21:22:23.084Z,7.63
2023-10-08T21:27:24.611Z,6.47
2023-10-08T21:32:26.129Z,7.90
2023-10-08T21:37:28.676Z,7.57
2023-10-08T21:42:30.201Z,7.78
2023-10-08T21:47:31.749Z,7.90
2023-10-08T21:52:33.449Z,7.50
2023-10-08T21:57:38.100Z,8.25
2023-10-08T22:02:47.014Z,7.50
2023-10-08T22:07:49.932Z,7.88
2023-10-08T22:12:54.715Z,7.22
2023-10-08T22:18:02.000Z,6.47
2023-10-08T22:23:06.290Z,7.53
2023-10-08T22:28:12.294Z,7.50
2023-10-08T22:33:15.060Z,8.02
2023-10-08T22:38:16.697Z,6.85
2023-10-08T22:43:20.693Z,7.75
2023-10-08T22:48:34.368Z,6.80
2023-10-08T22:53:37.050Z,6.70
2023-10-08T22:58:40.135Z,6.75
2023-10-08T23:03:47.513Z,5.88
2023-10-08T23:08:49.835Z,5.75
2023-10-08T23:13:52.118Z,4.20
2023-10-08T23:18:56.131Z,4.63
2023-10-08T23:23:58.107Z,4.35
2023-10-08T23:28:59.650Z,4.60
2023-10-08T23:34:02.040Z,4.68
2023-10-08T23:39:16.449Z,5.15
2023-10-08T23:44:26.163Z,4.30
2023-10-08T23:49:31.224Z,3.70
2023-10-08T23:54:35.749Z,4.03
2023-10-08T23:59:43.552Z,4.13
